Time;durP1;ratioP1;P1;durP2;ratioP2;P2;SDS_P1;SDS_P2;PMS_P1;PMS_P2;Temp;Humidity;BMP_temperature;BMP_pressure;BME280_temperature;BME280_humidity;BME280_pressure;Samples;Min_cycle;Max_cycle;Signal;HPM_P1;HPM_P2
2022/07/17 00:00:05;;;;;;;46.50;29.67;;;12.60;99.90;;;;;;5058249;28;20040;-72
2022/07/17 00:02:30;;;;;;;46.97;28.70;;;12.50;99.90;;;;;;5058600;28;20052;-72
2022/07/17 00:04:56;;;;;;;34.65;21.55;;;12.50;99.90;;;;;;5059738;28;20044;-69
2022/07/17 00:07:21;;;;;;;24.67;15.50;;;12.50;99.90;;;;;;5057656;28;20435;-71
2022/07/17 00:09:47;;;;;;;19.27;13.27;;;12.50;99.90;;;;;;5061735;28;20108;-71
2022/07/17 00:12:12;;;;;;;15.30;9.07;;;12.40;99.90;;;;;;5060513;28;20140;-71
2022/07/17 00:14:38;;;;;;;14.77;8.30;;;12.40;99.90;;;;;;5062238;28;20055;-70
2022/07/17 00:17:05;;;;;;;9.93;6.07;;;12.40;99.90;;;;;;5059833;28;20141;-72
2022/07/17 00:19:31;;;;;;;11.20;6.20;;;12.30;99.90;;;;;;5058643;28;20127;-70
2022/07/17 00:21:57;;;;;;;10.98;6.22;;;12.30;99.90;;;;;;5059857;28;20055;-71
2022/07/17 00:24:22;;;;;;;6.95;4.68;;;12.30;99.90;;;;;;5056705;28;20546;-71
2022/07/17 00:26:49;;;;;;;7.78;4.68;;;12.20;99.90;;;;;;5062771;28;20129;-71
2022/07/17 00:29:15;;;;;;;9.13;4.57;;;12.20;99.90;;;;;;5057102;28;20063;-71
2022/07/17 00:31:41;;;;;;;8.23;4.07;;;12.20;99.90;;;;;;5063841;28;20418;-71
2022/07/17 00:34:07;;;;;;;9.07;3.70;;;12.10;99.90;;;;;;5057451;28;21320;-71
2022/07/17 00:36:33;;;;;;;7.65;3.78;;;12.10;99.90;;;;;;5061404;28;20408;-72
2022/07/17 00:38:59;;;;;;;7.30;3.55;;;12.00;99.90;;;;;;5061870;28;20478;-70
2022/07/17 00:41:24;;;;;;;6.05;3.50;;;12.00;99.90;;;;;;5064006;28;20185;-71
2022/07/17 00:43:50;;;;;;;6.38;3.50;;;12.00;99.90;;;;;;5060840;28;20037;-70
2022/07/17 00:46:15;;;;;;;7.68;4.05;;;11.90;99.90;;;;;;5063632;28;20041;-71
2022/07/17 00:48:41;;;;;;;8.43;3.90;;;11.90;99.90;;;;;;5063490;28;20430;-70
2022/07/17 00:51:08;;;;;;;6.53;3.17;;;11.90;99.90;;;;;;5058008;28;20107;-70
2022/07/17 00:53:34;;;;;;;8.30;3.50;;;11.90;99.90;;;;;;5052911;28;20058;-70
2022/07/17 00:56:03;;;;;;;8.88;5.65;;;11.90;99.90;;;;;;5054987;28;20465;-70
2022/07/17 00:58:29;;;;;;;16.30;11.63;;;11.80;99.90;;;;;;5060104;28;20040;-71
2022/07/17 01:00:56;;;;;;;20.58;11.30;;;11.80;99.90;;;;;;5059598;28;20506;-70
2022/07/17 01:03:24;;;;;;;12.02;8.00;;;11.80;99.90;;;;;;5060849;28;20032;-70
2022/07/17 01:05:49;;;;;;;;;;;11.80;99.90;;;;;;5058387;28;20040;-71
2022/07/17 01:08:15;;;;;;;8.70;5.53;;;11.80;99.90;;;;;;5060097;28;19974;-70
2022/07/17 01:10:41;;;;;;;8.77;5.05;;;11.80;99.90;;;;;;5065746;28;20052;-71
2022/07/17 01:13:07;;;;;;;8.82;5.03;;;11.70;99.90;;;;;;5063165;28;20044;-71
2022/07/17 01:15:36;;;;;;;6.68;4.97;;;11.70;99.90;;;;;;5057063;28;20067;-70
2022/07/17 01:18:07;;;;;;;8.73;4.20;;;11.70;99.90;;;;;;5062543;28;20036;-71
2022/07/17 01:20:35;;;;;;;6.65;4.00;;;11.60;99.90;;;;;;5057985;28;20056;-71
2022/07/17 01:23:00;;;;;;;5.47;3.00;;;11.60;99.90;;;;;;5058272;28;20052;-71
2022/07/17 01:25:26;;;;;;;6.18;2.90;;;11.60;99.90;;;;;;5057576;28;20389;-72
2022/07/17 01:27:52;;;;;;;6.28;3.20;;;11.50;99.90;;;;;;5058283;28;20041;-71
2022/07/17 01:30:18;;;;;;;5.70;2.60;;;11.50;99.90;;;;;;5062026;28;20143;-69
2022/07/17 01:32:43;;;;;;;7.20;3.20;;;11.50;99.90;;;;;;5058900;28;20044;-71
2022/07/17 01:35:13;;;;;;;5.53;3.13;;;11.40;99.90;;;;;;5058542;28;20120;-70
2022/07/17 01:37:41;;;;;;;5.78;3.17;;;11.40;99.90;;;;;;5056514;28;20394;-70
2022/07/17 01:40:09;;;;;;;6.30;3.35;;;11.40;99.90;;;;;;5056204;28;20037;-70
2022/07/17 01:42:35;;;;;;;6.45;3.33;;;11.30;99.90;;;;;;5059485;28;20063;-70
2022/07/17 01:45:01;;;;;;;5.18;3.13;;;11.30;99.90;;;;;;5058191;28;20383;-70
2022/07/17 01:47:27;;;;;;;5.00;2.72;;;11.30;99.90;;;;;;5060064;28;20044;-69
2022/07/17 01:49:55;;;;;;;6.25;2.65;;;11.30;99.90;;;;;;5074479;22;20051;-47
2022/07/17 01:52:22;;;;;;;4.68;2.72;;;11.30;99.90;;;;;;5054282;22;20049;-50
2022/07/17 01:54:48;;;;;;;5.63;3.33;;;11.30;99.90;;;;;;5042306;28;20404;-48
2022/07/17 01:57:14;;;;;;;5.90;2.90;;;11.20;99.90;;;;;;5043090;28;20037;-47
2022/07/17 01:59:40;;;;;;;5.13;2.85;;;11.20;99.90;;;;;;5040339;28;20534;-50
2022/07/17 02:02:06;;;;;;;4.95;3.10;;;11.20;99.90;;;;;;5043506;28;20044;-48
2022/07/17 02:04:34;;;;;;;6.40;3.00;;;11.20;99.90;;;;;;5040644;28;20049;-47
2022/07/17 02:07:00;;;;;;;4.32;2.67;;;11.20;99.90;;;;;;5038174;28;20107;-48
2022/07/17 02:09:25;;;;;;;5.15;2.70;;;11.10;99.90;;;;;;5042293;28;20698;-51
2022/07/17 02:11:51;;;;;;;6.25;2.50;;;11.10;99.90;;;;;;5022351;28;20048;-46
2022/07/17 02:14:17;;;;;;;5.20;2.35;;;11.10;99.90;;;;;;5043402;28;20051;-46
2022/07/17 02:16:42;;;;;;;7.40;2.50;;;11.00;99.90;;;;;;5039624;28;20360;-46
2022/07/17 02:19:08;;;;;;;5.82;2.28;;;11.00;99.90;;;;;;5040364;28;20045;-49
2022/07/17 02:21:33;;;;;;;7.80;2.80;;;11.00;99.90;;;;;;5039025;28;20478;-50
2022/07/17 02:23:59;;;;;;;5.18;2.92;;;11.00;99.90;;;;;;5041669;28;20041;-47
2022/07/17 02:26:24;;;;;;;6.15;2.95;;;11.00;99.90;;;;;;5039824;28;20405;-50
2022/07/17 02:28:50;;;;;;;4.05;2.92;;;11.00;99.90;;;;;;5040353;28;20037;-49
2022/07/17 02:31:16;;;;;;;5.57;3.20;;;11.00;99.90;;;;;;5041446;28;20039;-49
2022/07/17 02:33:41;;;;;;;5.07;3.05;;;11.00;99.90;;;;;;5040433;28;20050;-47
2022/07/17 02:36:07;;;;;;;4.88;2.70;;;10.90;99.90;;;;;;5042450;28;20079;-49
2022/07/17 02:38:33;;;;;;;6.97;3.17;;;11.00;99.90;;;;;;5042592;28;20425;-48
2022/07/17 02:40:59;;;;;;;6.38;3.28;;;11.00;99.90;;;;;;5042534;28;20424;-49
2022/07/17 02:43:24;;;;;;;8.85;3.83;;;11.00;99.90;;;;;;5041179;28;20047;-48
2022/07/17 02:45:50;;;;;;;5.40;3.15;;;11.00;99.90;;;;;;5043819;28;20033;-46
2022/07/17 02:48:16;;;;;;;6.18;3.45;;;11.00;99.90;;;;;;5043290;28;20041;-51
2022/07/17 02:50:41;;;;;;;3.80;2.70;;;11.00;99.90;;;;;;5042517;28;20203;-48
2022/07/17 02:53:07;;;;;;;10.80;3.53;;;10.90;99.90;;;;;;5040432;28;20138;-47
2022/07/17 02:55:32;;;;;;;4.57;3.20;;;10.90;99.90;;;;;;5041524;28;20052;-49
2022/07/17 02:57:58;;;;;;;5.40;3.47;;;10.90;99.90;;;;;;5027612;28;20139;-46
2022/07/17 03:00:26;;;;;;;5.80;3.35;;;10.90;99.90;;;;;;5026482;28;20045;-48
2022/07/17 03:02:52;;;;;;;;;;;10.90;99.90;;;;;;5042177;28;20080;-47
2022/07/17 03:05:17;;;;;;;5.32;3.75;;;10.80;99.90;;;;;;5043301;28;20014;-48
2022/07/17 03:07:44;;;;;;;5.07;3.63;;;10.90;99.90;;;;;;5043591;28;20045;-48
2022/07/17 03:10:09;;;;;;;5.28;3.33;;;10.90;99.90;;;;;;5044684;28;20068;-50
2022/07/17 03:12:35;;;;;;;5.05;3.60;;;10.90;99.90;;;;;;5044733;28;20524;-47
2022/07/17 03:15:01;;;;;;;4.97;3.15;;;10.90;99.90;;;;;;5027568;28;20399;-47
2022/07/17 03:17:27;;;;;;;6.55;3.33;;;10.80;99.90;;;;;;5042626;28;20513;-51
2022/07/17 03:19:53;;;;;;;4.10;3.20;;;10.70;99.90;;;;;;5040642;28;20068;-47
2022/07/17 03:22:18;;;;;;;5.55;3.80;;;10.70;99.90;;;;;;5041144;28;20509;-49
2022/07/17 03:24:44;;;;;;;4.85;3.47;;;10.70;99.90;;;;;;5045633;28;20064;-53
2022/07/17 03:27:09;;;;;;;5.70;3.15;;;10.60;99.90;;;;;;5042133;28;20042;-46
2022/07/17 03:29:35;;;;;;;3.70;2.88;;;10.60;99.90;;;;;;5024443;28;20074;-47
2022/07/17 03:32:00;;;;;;;7.47;3.50;;;10.50;99.90;;;;;;5040696;28;20447;-47
2022/07/17 03:34:26;;;;;;;6.30;3.22;;;10.50;99.90;;;;;;5044196;28;20041;-46
2022/07/17 03:36:52;;;;;;;5.57;4.07;;;10.50;99.90;;;;;;5042644;28;20084;-47
2022/07/17 03:39:17;;;;;;;6.80;3.50;;;10.50;99.90;;;;;;5045157;28;20075;-51
2022/07/17 03:41:43;;;;;;;5.25;3.40;;;10.50;99.90;;;;;;5040952;28;20037;-49
2022/07/17 03:44:08;;;;;;;5.53;3.63;;;10.50;99.90;;;;;;5044991;28;20112;-50
2022/07/17 03:46:34;;;;;;;3.78;3.10;;;10.50;99.90;;;;;;5043133;28;20049;-49
2022/07/17 03:49:03;;;;;;;7.30;3.33;;;10.60;99.90;;;;;;5041903;28;20056;-49
2022/07/17 03:51:29;;;;;;;5.32;3.58;;;10.60;99.90;;;;;;5039062;28;20063;-51
2022/07/17 03:53:54;;;;;;;7.90;3.75;;;10.60;99.90;;;;;;5043883;28;20045;-49
2022/07/17 03:56:20;;;;;;;3.90;3.28;;;10.60;99.90;;;;;;5040955;28;20094;-50
2022/07/17 03:58:46;;;;;;;4.63;3.55;;;10.60;99.90;;;;;;5041914;28;20589;-47
2022/07/17 04:01:11;;;;;;;6.38;3.22;;;10.60;99.90;;;;;;5043287;28;20053;-50
2022/07/17 04:03:37;;;;;;;4.90;3.45;;;10.70;99.90;;;;;;5042213;28;20098;-49
2022/07/17 04:06:03;;;;;;;6.05;3.30;;;10.70;99.90;;;;;;5040712;28;20085;-47
2022/07/17 04:08:28;;;;;;;6.50;3.78;;;10.70;99.90;;;;;;5043807;28;20045;-50
2022/07/17 04:10:54;;;;;;;4.68;3.33;;;10.70;99.90;;;;;;5042138;28;20041;-47
2022/07/17 04:13:20;;;;;;;7.00;3.33;;;10.80;99.90;;;;;;5040723;28;20037;-48
2022/07/17 04:16:18;;;;;;;6.22;3.42;;;10.80;99.90;;;;;;5042432;28;20386;-48
2022/07/17 04:18:37;;;;;;;6.15;3.45;;;10.80;99.90;;;;;;5037172;28;20042;-47
2022/07/17 04:21:05;;;;;;;7.22;3.60;;;10.90;99.90;;;;;;5034757;28;20044;-51
2022/07/17 04:23:31;;;;;;;5.53;3.60;;;11.00;99.90;;;;;;5043667;28;20110;-47
2022/07/17 04:25:57;;;;;;;4.50;3.28;;;11.10;99.90;;;;;;5038899;28;20517;-52
2022/07/17 04:28:23;;;;;;;5.50;3.75;;;11.20;99.90;;;;;;5039358;28;20132;-49
2022/07/17 04:30:49;;;;;;;6.20;4.00;;;11.40;99.90;;;;;;5040370;28;20157;-52
2022/07/17 04:33:15;;;;;;;6.68;3.47;;;11.50;99.90;;;;;;5039173;28;20167;-49
2022/07/17 04:35:41;;;;;;;6.65;3.95;;;11.70;99.90;;;;;;5041759;28;20048;-49
2022/07/17 04:38:08;;;;;;;7.88;3.30;;;11.90;99.90;;;;;;5042739;28;20439;-47
2022/07/17 04:40:36;;;;;;;3.42;2.80;;;12.10;99.90;;;;;;5039629;28;20048;-50
2022/07/17 04:43:02;;;;;;;;;;;12.40;99.90;;;;;;5038184;28;20033;-46
2022/07/17 04:45:27;;;;;;;9.23;3.95;;;12.40;99.90;;;;;;5040377;28;19947;-46
2022/07/17 04:47:53;;;;;;;4.93;3.53;;;12.50;99.90;;;;;;5043974;28;21704;-47
2022/07/17 04:50:19;;;;;;;8.40;3.42;;;12.60;99.90;;;;;;5023368;28;20075;-51
2022/07/17 04:52:45;;;;;;;4.40;3.33;;;12.70;99.90;;;;;;5039943;28;20049;-49
2022/07/17 04:55:10;;;;;;;5.30;3.40;;;12.80;99.90;;;;;;5041716;28;20041;-47
2022/07/17 04:57:36;;;;;;;4.90;3.50;;;12.80;99.90;;;;;;5036741;28;20098;-46
2022/07/17 05:00:04;;;;;;;4.88;3.30;;;12.90;99.90;;;;;;5042025;28;20029;-47
2022/07/17 05:02:29;;;;;;;8.38;3.33;;;13.00;99.90;;;;;;5039045;28;20069;-50
2022/07/17 05:04:55;;;;;;;5.97;3.50;;;13.10;99.90;;;;;;5040178;28;20075;-50
2022/07/17 05:07:20;;;;;;;7.55;3.50;;;13.20;99.90;;;;;;5039170;28;20041;-46
2022/07/17 05:09:46;;;;;;;4.22;3.03;;;13.20;99.90;;;;;;5041880;28;20045;-48
2022/07/17 05:12:12;;;;;;;6.05;3.28;;;13.40;99.90;;;;;;5039106;28;20076;-49
2022/07/17 05:14:37;;;;;;;8.25;3.50;;;13.40;99.90;;;;;;5043907;28;20049;-47
2022/07/17 05:17:03;;;;;;;6.28;3.38;;;13.80;99.90;;;;;;5038096;28;20344;-50
2022/07/17 05:19:28;;;;;;;5.57;3.88;;;14.90;99.90;;;;;;5040078;28;20371;-51
2022/07/17 05:21:54;;;;;;;8.57;3.45;;;17.60;99.90;;;;;;5041201;28;20041;-48
2022/07/17 05:24:20;;;;;;;8.00;3.00;;;18.30;99.90;;;;;;5040528;28;20053;-53
2022/07/17 05:26:45;;;;;;;6.22;3.15;;;18.40;99.90;;;;;;5038995;28;20116;-50
2022/07/17 05:29:11;;;;;;;5.03;2.45;;;20.20;99.90;;;;;;5040215;28;20406;-51
2022/07/17 05:31:37;;;;;;;5.25;2.50;;;20.50;99.90;;;;;;5039574;28;20119;-52
2022/07/17 05:34:02;;;;;;;5.20;2.42;;;20.40;99.90;;;;;;5039940;28;20144;-52
2022/07/17 05:36:28;;;;;;;5.00;2.47;;;20.00;99.90;;;;;;5036220;28;20043;-53
2022/07/17 05:38:54;;;;;;;6.35;2.70;;;19.50;99.90;;;;;;5042254;28;20465;-51
2022/07/17 05:41:19;;;;;;;4.43;2.40;;;19.40;99.90;;;;;;5042567;28;20094;-54
2022/07/17 05:43:45;;;;;;;4.65;2.33;;;19.80;99.90;;;;;;5040227;28;20060;-53
2022/07/17 05:46:11;;;;;;;5.68;2.30;;;20.40;99.90;;;;;;5037608;28;20052;-55
2022/07/17 05:48:36;;;;;;;7.20;3.08;;;19.90;99.90;;;;;;5039976;28;20375;-52
2022/07/17 05:51:02;;;;;;;4.38;2.35;;;19.50;99.90;;;;;;5041716;28;20614;-53
2022/07/17 05:53:28;;;;;;;4.20;2.13;;;19.10;99.90;;;;;;5042349;28;20037;-51
2022/07/17 05:55:53;;;;;;;3.17;2.15;;;18.80;99.90;;;;;;5036721;28;20509;-53
2022/07/17 05:58:19;;;;;;;4.55;2.05;;;18.60;99.90;;;;;;5039652;28;20052;-52
2022/07/17 06:00:44;;;;;;;5.60;2.58;;;18.20;99.90;;;;;;5040728;28;20045;-50
2022/07/17 06:03:10;;;;;;;4.00;2.10;;;18.00;99.90;;;;;;5041952;28;20037;-50
2022/07/17 06:05:36;;;;;;;3.22;2.08;;;17.70;99.90;;;;;;5038408;28;20049;-49
2022/07/17 06:08:02;;;;;;;3.72;2.00;;;17.60;99.90;;;;;;5042351;28;20157;-50
2022/07/17 06:10:28;;;;;;;5.35;2.40;;;17.60;99.90;;;;;;5042909;28;20253;-51
2022/07/17 06:12:54;;;;;;;4.82;2.40;;;17.40;99.90;;;;;;5039693;28;20037;-51
2022/07/17 06:15:20;;;;;;;4.15;2.38;;;17.40;99.90;;;;;;5039707;28;20056;-53
2022/07/17 06:17:48;;;;;;;4.03;2.30;;;17.40;99.90;;;;;;5036960;28;20072;-50
2022/07/17 06:20:14;;;;;;;8.60;2.63;;;17.30;99.90;;;;;;5042410;28;20045;-52
2022/07/17 06:22:40;;;;;;;7.57;2.30;;;17.40;99.90;;;;;;5045368;28;20052;-51
2022/07/17 06:25:06;;;;;;;5.75;2.45;;;17.50;99.90;;;;;;5042112;28;20037;-51
2022/07/17 06:27:32;;;;;;;9.00;4.72;;;17.80;99.90;;;;;;5025397;28;20037;-51
2022/07/17 06:29:58;;;;;;;8.23;2.60;;;17.90;99.90;;;;;;5045260;28;20667;-53
2022/07/17 06:32:23;;;;;;;5.78;2.20;;;18.10;99.90;;;;;;5040511;28;20597;-52
2022/07/17 06:34:49;;;;;;;6.15;2.78;;;18.40;99.90;;;;;;5042128;28;20041;-50
2022/07/17 06:37:15;;;;;;;7.97;2.70;;;18.50;99.90;;;;;;5044055;28;20499;-53
2022/07/17 06:39:40;;;;;;;5.13;2.50;;;18.60;99.90;;;;;;5045499;28;20189;-53
2022/07/17 06:42:06;;;;;;;6.20;2.50;;;19.10;99.90;;;;;;5043767;28;20108;-52
2022/07/17 06:44:31;;;;;;;5.53;2.25;;;20.00;99.90;;;;;;5041262;28;20083;-52
2022/07/17 06:46:57;;;;;;;4.60;2.20;;;21.40;99.90;;;;;;5043723;28;20038;-49
2022/07/17 06:49:23;;;;;;;3.92;2.10;;;22.50;99.90;;;;;;5044803;28;20442;-54
2022/07/17 06:51:48;;;;;;;7.57;2.70;;;22.60;99.90;;;;;;5024969;28;20156;-48
2022/07/17 06:54:15;;;;;;;6.85;2.22;;;23.20;99.10;;;;;;5042942;28;20040;-53
2022/07/17 06:56:41;;;;;;;4.13;1.70;;;23.90;98.60;;;;;;5044598;28;20033;-51
2022/07/17 06:59:07;;;;;;;5.05;2.25;;;23.80;97.00;;;;;;5044377;28;20128;-52
2022/07/17 07:01:34;;;;;;;4.53;1.45;;;24.20;96.40;;;;;;5038903;28;20123;-52
2022/07/17 07:04:00;;;;;;;5.13;1.60;;;24.80;94.50;;;;;;5041273;28;20091;-49
2022/07/17 07:06:25;;;;;;;3.78;1.20;;;25.00;94.30;;;;;;5041545;28;20045;-47
2022/07/17 07:08:51;;;;;;;4.60;1.50;;;25.00;91.90;;;;;;5043689;28;20045;-50
2022/07/17 07:11:16;;;;;;;4.53;1.58;;;25.30;91.80;;;;;;5045643;28;20037;-49
2022/07/17 07:13:42;;;;;;;3.97;1.52;;;25.40;91.10;;;;;;5042246;28;20051;-51
2022/07/17 07:16:07;;;;;;;3.92;1.40;;;25.70;91.30;;;;;;5043186;28;20041;-51
2022/07/17 07:18:33;;;;;;;5.05;1.40;;;25.70;88.70;;;;;;5027235;28;20044;-50
2022/07/17 07:20:59;;;;;;;5.07;1.75;;;25.30;84.90;;;;;;5043868;28;20029;-48
2022/07/17 07:23:24;;;;;;;2.33;1.17;;;24.90;85.90;;;;;;5041810;28;20128;-50
2022/07/17 07:25:50;;;;;;;4.65;1.13;;;25.10;85.50;;;;;;5040260;28;20045;-50
2022/07/17 07:28:16;;;;;;;4.45;1.50;;;25.50;87.60;;;;;;5044464;28;20052;-48
2022/07/17 07:30:41;;;;;;;4.93;1.20;;;25.80;85.00;;;;;;5043287;28;20064;-47
2022/07/17 07:33:07;;;;;;;7.03;1.40;;;25.90;85.50;;;;;;5040383;28;20045;-48
2022/07/17 07:35:33;;;;;;;4.97;1.30;;;25.80;83.10;;;;;;5040813;28;20037;-50
2022/07/17 07:37:58;;;;;;;3.75;1.05;;;26.20;83.20;;;;;;5041899;28;20131;-52
2022/07/17 07:40:24;;;;;;;3.05;1.30;;;26.30;82.00;;;;;;5042258;28;20414;-51
2022/07/17 07:42:49;;;;;;;4.75;1.33;;;26.60;84.40;;;;;;5040801;28;20033;-48
2022/07/17 07:45:15;;;;;;;3.97;1.33;;;26.50;82.20;;;;;;5044268;28;20043;-51
2022/07/17 07:47:47;;;;;;;4.95;1.38;;;25.70;79.00;;;;;;5023087;28;20045;-50
2022/07/17 07:50:14;;;;;;;5.88;1.33;;;24.80;80.70;;;;;;5040214;28;20087;-50
2022/07/17 07:52:40;;;;;;;2.90;1.00;;;24.50;82.20;;;;;;5037004;28;20475;-53
2022/07/17 07:55:06;;;;;;;7.30;2.28;;;24.30;83.30;;;;;;5043828;28;20124;-50
2022/07/17 07:57:32;;;;;;;7.17;1.30;;;23.80;82.20;;;;;;5043572;28;20041;-52
2022/07/17 07:59:57;;;;;;;3.42;1.10;;;23.50;84.10;;;;;;5043455;28;20390;-50
2022/07/17 08:02:23;;;;;;;3.83;1.10;;;23.10;84.40;;;;;;5036477;28;20128;-49
2022/07/17 08:04:48;;;;;;;4.50;1.17;;;23.00;85.90;;;;;;5042051;28;20329;-48
2022/07/17 08:07:14;;;;;;;4.05;1.30;;;22.20;86.10;;;;;;5037737;28;20120;-47
2022/07/17 08:09:39;;;;;;;6.38;1.23;;;22.40;86.70;;;;;;5043425;28;20048;-51
2022/07/17 08:12:05;;;;;;;3.33;1.20;;;22.10;87.30;;;;;;5039345;28;20045;-49
2022/07/17 08:14:31;;;;;;;5.07;1.52;;;21.70;88.00;;;;;;5039835;28;20454;-50
2022/07/17 08:16:56;;;;;;;5.63;1.58;;;22.10;89.60;;;;;;5043795;28;20040;-52
2022/07/17 08:19:22;;;;;;;6.03;1.48;;;22.10;90.00;;;;;;5026303;28;21981;-50
2022/07/17 08:21:48;;;;;;;4.60;1.48;;;21.90;89.50;;;;;;5043393;28;20045;-51
2022/07/17 08:24:13;;;;;;;3.28;1.30;;;22.30;90.80;;;;;;5021125;28;20037;-51
2022/07/17 08:26:39;;;;;;;4.90;1.48;;;22.40;90.50;;;;;;5045660;28;20037;-51
2022/07/17 08:29:05;;;;;;;5.07;1.45;;;22.20;89.90;;;;;;5044320;28;20072;-50
2022/07/17 08:31:30;;;;;;;4.15;1.40;;;22.00;90.60;;;;;;5043129;28;20053;-50
2022/07/17 08:33:56;;;;;;;4.35;0.95;;;22.50;90.60;;;;;;5042408;28;20041;-50
2022/07/17 08:36:22;;;;;;;3.75;1.30;;;22.30;90.00;;;;;;5036022;28;20398;-48
2022/07/17 08:38:47;;;;;;;7.18;1.17;;;22.50;90.10;;;;;;5040493;28;20044;-49
2022/07/17 08:41:17;;;;;;;3.10;1.13;;;22.40;89.80;;;;;;5036799;28;20119;-48
2022/07/17 08:43:44;;;;;;;4.18;1.30;;;22.40;88.50;;;;;;5039452;28;20037;-52
2022/07/17 08:46:11;;;;;;;2.95;1.23;;;22.50;90.00;;;;;;5038816;28;20053;-47
2022/07/17 08:48:41;;;;;;;4.25;0.90;;;21.90;87.10;;;;;;5043782;28;20658;-49
2022/07/17 08:51:07;;;;;;;4.93;1.35;;;21.70;87.50;;;;;;5040252;28;20064;-49
2022/07/17 08:53:33;;;;;;;4.78;0.90;;;21.60;89.20;;;;;;5044462;28;20049;-50
2022/07/17 08:55:59;;;;;;;3.38;1.05;;;21.70;90.10;;;;;;5046369;28;20044;-52
2022/07/17 08:58:24;;;;;;;5.00;1.10;;;21.80;88.50;;;;;;5046314;28;20033;-48
2022/07/17 09:00:50;;;;;;;2.80;1.00;;;22.00;89.70;;;;;;5037072;28;20107;-51
2022/07/17 09:03:17;;;;;;;4.15;1.20;;;21.80;89.10;;;;;;5022804;28;20683;-48
2022/07/17 09:05:43;;;;;;;3.42;1.05;;;21.90;89.80;;;;;;5040977;28;20057;-49
2022/07/17 09:08:17;;;;;;;2.45;0.98;;;21.50;88.70;;;;;;5043569;28;20055;-49
2022/07/17 09:10:45;;;;;;;4.85;1.20;;;21.60;85.50;;;;;;5049234;28;20060;-48
2022/07/17 09:13:15;;;;;;;;;;;21.40;86.70;;;;;;5045505;28;20041;-51
2022/07/17 09:15:40;;;;;;;5.20;0.90;;;21.60;87.80;;;;;;5042315;28;20336;-48
2022/07/17 09:18:06;;;;;;;4.93;1.30;;;21.80;87.30;;;;;;5025008;28;20760;-49
2022/07/17 09:20:31;;;;;;;8.25;1.65;;;21.80;88.20;;;;;;5036830;28;20091;-52
2022/07/17 09:23:03;;;;;;;3.90;0.98;;;21.50;87.80;;;;;;5033229;28;20045;-50
2022/07/17 09:25:39;;;;;;;5.20;1.10;;;21.80;90.00;;;;;;5032915;28;20041;-50
2022/07/17 09:28:07;;;;;;;5.28;1.13;;;21.80;87.20;;;;;;5037294;28;20068;-50
2022/07/17 09:30:35;;;;;;;3.17;1.10;;;21.70;88.80;;;;;;5039206;28;20037;-48
2022/07/17 09:33:01;;;;;;;5.93;1.13;;;21.80;90.10;;;;;;5034655;28;20593;-50
2022/07/17 09:35:27;;;;;;;4.25;0.95;;;22.20;90.50;;;;;;5037728;28;20037;-52
2022/07/17 09:37:54;;;;;;;2.35;0.77;;;22.30;89.30;;;;;;5036628;28;20060;-47
2022/07/17 09:43:05;;;;;;;4.75;1.02;;;22.60;87.30;;;;;;5037666;28;20060;-48
2022/07/17 09:45:33;;;;;;;3.40;1.00;;;22.80;87.30;;;;;;5039015;28;20049;-49
2022/07/17 09:48:00;;;;;;;3.90;1.00;;;22.90;86.50;;;;;;5039036;28;20045;-52
2022/07/17 09:50:28;;;;;;;4.05;1.10;;;22.80;84.40;;;;;;5042201;28;20083;-49
2022/07/17 09:52:56;;;;;;;4.50;1.30;;;22.90;85.00;;;;;;5041434;28;21607;-47
2022/07/17 09:55:28;;;;;;;3.58;1.15;;;22.70;85.20;;;;;;5047365;28;20071;-48
2022/07/17 09:57:55;;;;;;;2.60;0.90;;;22.90;86.00;;;;;;5043547;28;20045;-49
2022/07/17 10:00:22;;;;;;;4.35;1.20;;;22.60;83.90;;;;;;5042262;28;20041;-47
2022/07/17 10:02:48;;;;;;;4.18;1.00;;;22.50;83.90;;;;;;5044811;28;20044;-46
2022/07/17 10:05:15;;;;;;;2.80;0.80;;;21.90;84.90;;;;;;5044505;28;20040;-48
2022/07/17 10:07:42;;;;;;;2.25;1.02;;;22.20;86.10;;;;;;5049379;28;20121;-52
2022/07/17 10:10:09;;;;;;;2.67;1.00;;;22.30;86.70;;;;;;5044926;28;20056;-51
2022/07/17 10:12:38;;;;;;;3.42;1.05;;;22.70;87.40;;;;;;5046140;28;20127;-50
2022/07/17 10:15:05;;;;;;;3.88;0.95;;;22.90;85.30;;;;;;5044900;28;20076;-49
2022/07/17 10:17:31;;;;;;;3.60;0.90;;;22.60;85.70;;;;;;5044361;28;20042;-50
2022/07/17 10:19:57;;;;;;;4.47;0.88;;;22.90;85.20;;;;;;5043231;28;20700;-50
2022/07/17 10:22:24;;;;;;;4.25;0.98;;;22.80;84.90;;;;;;5042201;28;20433;-50
2022/07/17 10:24:54;;;;;;;3.25;0.90;;;23.10;86.10;;;;;;5043302;28;20068;-48
2022/07/17 10:27:26;;;;;;;2.58;0.90;;;23.30;86.10;;;;;;5041391;28;20037;-47
2022/07/17 10:30:09;;;;;;;1.88;0.77;;;23.20;84.70;;;;;;5037193;28;20098;-51
2022/07/17 10:32:36;;;;;;;4.05;1.10;;;23.50;85.70;;;;;;5044600;28;20682;-48
2022/07/17 10:35:07;;;;;;;4.28;1.20;;;23.20;82.70;;;;;;5046821;28;20076;-48
2022/07/17 10:37:40;;;;;;;2.25;0.95;;;23.60;85.60;;;;;;5046930;28;20410;-51
2022/07/17 10:40:27;;;;;;;3.92;1.10;;;23.90;84.20;;;;;;5038481;28;20045;-52
2022/07/17 10:42:59;;;;;;;2.05;1.00;;;23.70;81.80;;;;;;5042705;28;20041;-48
2022/07/17 10:45:42;;;;;;;4.47;1.08;;;23.90;82.50;;;;;;5044401;28;20041;-51
2022/07/17 10:48:10;;;;;;;2.33;1.10;;;24.20;83.10;;;;;;5043304;28;20049;-50
2022/07/17 10:50:48;;;;;;;2.20;0.90;;;23.90;79.40;;;;;;5043283;28;20044;-52
2022/07/17 10:53:31;;;;;;;4.22;0.88;;;24.20;79.90;;;;;;5041894;28;20053;-51
2022/07/17 10:56:05;;;;;;;3.72;1.20;;;24.20;79.70;;;;;;5043809;28;20474;-52
2022/07/17 10:58:42;;;;;;;3.03;0.93;;;24.00;80.00;;;;;;5046305;28;20045;-51
2022/07/17 11:01:13;;;;;;;4.33;1.00;;;24.40;81.80;;;;;;5044928;28;20048;-51
2022/07/17 11:03:50;;;;;;;4.25;0.98;;;23.60;78.90;;;;;;5040354;28;20345;-51
2022/07/17 11:06:16;;;;;;;3.88;0.93;;;23.70;79.60;;;;;;5039896;28;20564;-49
2022/07/17 11:08:47;;;;;;;6.07;1.10;;;24.10;81.20;;;;;;5037937;28;20049;-53
2022/07/17 11:11:13;;;;;;;3.33;0.70;;;24.10;80.20;;;;;;5040410;28;20320;-48
2022/07/17 11:13:39;;;;;;;1.80;0.90;;;24.30;81.40;;;;;;5040880;28;20053;-50
2022/07/17 11:16:05;;;;;;;2.55;0.90;;;24.20;78.60;;;;;;5041100;28;20047;-51
2022/07/17 11:18:30;;;;;;;3.15;0.80;;;24.50;80.60;;;;;;5042082;28;20131;-48
2022/07/17 11:20:59;;;;;;;3.85;0.80;;;24.30;77.50;;;;;;5036192;28;20490;-50
2022/07/17 11:23:31;;;;;;;3.22;0.85;;;24.10;79.00;;;;;;5031762;28;20491;-51
2022/07/17 11:26:03;;;;;;;2.70;0.90;;;24.20;77.80;;;;;;5039679;28;20152;-52
2022/07/17 11:28:40;;;;;;;3.58;0.82;;;24.00;78.50;;;;;;5029652;28;20270;-51
2022/07/17 11:31:25;;;;;;;2.28;0.90;;;24.50;78.90;;;;;;5028153;28;20487;-49
2022/07/17 11:33:56;;;;;;;2.83;0.85;;;24.50;78.80;;;;;;5040795;28;20042;-50
2022/07/17 11:36:28;;;;;;;4.10;1.30;;;24.40;79.00;;;;;;5041521;28;20432;-47
2022/07/17 11:38:55;;;;;;;1.77;0.90;;;24.80;79.20;;;;;;5040172;28;20422;-50
2022/07/17 11:41:21;;;;;;;3.78;0.90;;;24.50;77.50;;;;;;5038092;28;20040;-48
2022/07/17 11:43:47;;;;;;;2.05;0.82;;;24.50;77.50;;;;;;5040866;28;20099;-51
2022/07/17 11:46:14;;;;;;;2.78;0.90;;;24.40;77.20;;;;;;5043194;28;20171;-53
2022/07/17 11:48:42;;;;;;;2.92;0.90;;;24.70;78.60;;;;;;5044512;28;20111;-53
2022/07/17 11:51:07;;;;;;;3.15;1.00;;;24.80;77.10;;;;;;5043001;28;20061;-51
2022/07/17 11:53:35;;;;;;;1.65;0.70;;;24.60;77.50;;;;;;5041852;28;20049;-52
2022/07/17 11:56:01;;;;;;;3.30;0.90;;;24.40;74.30;;;;;;5042018;28;20048;-53
2022/07/17 11:58:27;;;;;;;2.00;0.77;;;24.70;77.60;;;;;;5039997;28;20048;-52
2022/07/17 12:01:05;;;;;;;2.05;0.98;;;24.30;75.60;;;;;;5040047;28;20037;-51
2022/07/17 12:03:31;;;;;;;2.25;1.00;;;24.50;76.40;;;;;;5037272;28;20149;-53
2022/07/17 12:05:56;;;;;;;2.53;1.00;;;24.50;77.30;;;;;;5043161;28;20147;-52
2022/07/17 12:08:22;;;;;;;1.95;0.98;;;24.30;75.70;;;;;;5028237;28;20048;-50
2022/07/17 12:10:48;;;;;;;4.93;1.02;;;24.20;74.80;;;;;;5042541;28;20754;-50
2022/07/17 12:13:16;;;;;;;3.17;1.00;;;24.20;74.50;;;;;;5044476;28;20041;-49
2022/07/17 12:15:45;;;;;;;3.72;0.98;;;23.90;75.70;;;;;;5049369;28;20510;-48
2022/07/17 12:18:28;;;;;;;1.27;0.90;;;24.00;75.00;;;;;;5050021;28;20053;-50
2022/07/17 12:20:56;;;;;;;2.63;1.15;;;24.30;76.30;;;;;;5040061;28;20041;-50
2022/07/17 12:23:37;;;;;;;3.25;1.27;;;24.10;75.20;;;;;;5051658;28;20049;-48
2022/07/17 12:26:06;;;;;;;2.95;1.13;;;24.20;74.80;;;;;;5047701;28;20896;-48
2022/07/17 12:28:32;;;;;;;2.25;1.23;;;24.10;75.20;;;;;;5052812;28;20045;-49
2022/07/17 12:30:58;;;;;;;3.28;0.98;;;24.10;75.80;;;;;;5052673;28;20266;-48
2022/07/17 12:33:23;;;;;;;2.25;1.13;;;23.50;73.90;;;;;;5051176;28;20340;-51
2022/07/17 12:35:49;;;;;;;2.50;1.20;;;23.90;75.60;;;;;;5052517;28;20037;-50
2022/07/17 12:38:15;;;;;;;2.05;1.20;;;24.30;75.10;;;;;;5052493;28;20040;-51
2022/07/17 12:40:41;;;;;;;2.33;1.33;;;24.60;76.90;;;;;;5050949;28;20037;-50
2022/07/17 12:43:08;;;;;;;3.38;1.50;;;24.90;77.10;;;;;;5051628;28;20041;-53
2022/07/17 12:45:34;;;;;;;3.67;1.40;;;24.90;74.70;;;;;;5050313;28;20112;-50
2022/07/17 12:47:59;;;;;;;2.60;1.33;;;24.60;75.00;;;;;;5049769;28;20562;-51